Time;durP1;ratioP1;P1;durP2;ratioP2;P2;SDS_P1;SDS_P2;PMS_P1;PMS_P2;Temp;Humidity;BMP_temperature;BMP_pressure;BME280_temperature;BME280_humidity;BME280_pressure;Samples;Min_cycle;Max_cycle;Signal;HPM_P1;HPM_P2
2022/09/27 00:00:24;;;;;;;5.97;0.70;;;11.20;99.90;;;;;;6244956;23;20024;-76
2022/09/27 00:02:50;;;;;;;7.03;1.30;;;11.20;99.90;;;;;;6247721;23;20056;-79
2022/09/27 00:05:17;;;;;;;7.03;0.75;;;11.20;99.90;;;;;;6241810;23;20028;-78
2022/09/27 00:07:43;;;;;;;8.10;1.27;;;11.20;99.90;;;;;;6243301;22;20024;-75
2022/09/27 00:10:11;;;;;;;9.75;1.73;;;11.20;99.90;;;;;;6243842;22;20034;-76
2022/09/27 00:12:38;;;;;;;9.55;1.67;;;11.30;99.90;;;;;;6242192;23;20464;-77
2022/09/27 00:15:05;;;;;;;15.23;2.30;;;11.30;99.90;;;;;;6243626;22;20028;-76
2022/09/27 00:17:32;;;;;;;7.55;1.08;;;11.20;99.90;;;;;;6244263;22;20028;-78
2022/09/27 00:19:59;;;;;;;9.02;1.08;;;11.20;99.90;;;;;;6243958;22;20471;-79
2022/09/27 00:22:26;;;;;;;9.07;1.13;;;11.20;99.90;;;;;;6244827;22;20077;-77
2022/09/27 00:24:52;;;;;;;5.30;1.02;;;11.20;99.90;;;;;;6243652;22;20016;-80
2022/09/27 00:27:18;;;;;;;9.73;1.65;;;11.20;99.90;;;;;;6241886;23;20031;-81
2022/09/27 00:29:45;;;;;;;8.43;1.10;;;11.20;99.90;;;;;;6241840;23;20183;-76
2022/09/27 00:32:12;;;;;;;8.40;1.10;;;11.20;99.90;;;;;;6242562;23;20512;-79
2022/09/27 00:34:38;;;;;;;4.75;0.70;;;11.30;99.90;;;;;;6220209;23;20514;-81
2022/09/27 00:37:04;;;;;;;10.07;0.90;;;11.30;99.90;;;;;;6217281;23;20078;-78
2022/09/27 00:39:30;;;;;;;6.38;1.00;;;11.40;99.90;;;;;;6241682;23;20103;-79
2022/09/27 00:41:56;;;;;;;6.30;1.00;;;11.40;99.90;;;;;;6242128;23;20058;-76
2022/09/27 00:44:28;;;;;;;10.85;1.52;;;11.40;99.90;;;;;;6243689;22;20027;-76
2022/09/27 00:47:08;;;;;;;7.68;1.10;;;11.40;99.90;;;;;;6242760;23;20024;-76
2022/09/27 00:49:34;;;;;;;6.32;0.90;;;11.40;99.90;;;;;;6246483;23;20024;-79
2022/09/27 00:52:06;;;;;;;7.13;1.27;;;11.40;99.90;;;;;;6243595;23;20114;-76
2022/09/27 00:54:35;;;;;;;9.60;1.17;;;11.40;99.90;;;;;;6243346;22;20098;-76
2022/09/27 00:57:02;;;;;;;6.45;0.98;;;11.50;99.90;;;;;;6241486;23;20395;-75
2022/09/27 00:59:34;;;;;;;7.47;1.08;;;11.50;99.90;;;;;;6242162;23;20027;-75
2022/09/27 01:02:01;;;;;;;8.02;1.42;;;11.50;99.90;;;;;;6246095;22;20020;-78
2022/09/27 01:04:31;;;;;;;12.50;2.80;;;11.50;99.90;;;;;;6241385;23;20047;-78
2022/09/27 01:06:56;;;;;;;11.20;2.03;;;11.40;99.90;;;;;;6241596;23;20016;-75
2022/09/27 01:09:23;;;;;;;9.63;1.65;;;11.40;99.90;;;;;;6241102;23;20470;-77
2022/09/27 01:12:08;;;;;;;8.85;1.83;;;11.30;99.90;;;;;;6241355;23;20094;-76
2022/09/27 01:14:46;;;;;;;14.10;1.15;;;11.20;99.90;;;;;;6268588;22;20590;-77
2022/09/27 01:17:30;;;;;;;8.80;1.10;;;11.20;99.90;;;;;;6269432;22;20476;-79
2022/09/27 01:19:56;;;;;;;7.57;1.20;;;11.10;99.90;;;;;;6243485;23;20024;-76
2022/09/27 01:22:29;;;;;;;10.23;2.10;;;11.10;99.90;;;;;;6243695;23;20026;-77
2022/09/27 01:25:16;;;;;;;12.75;1.83;;;11.00;99.90;;;;;;6245633;22;20020;-78
2022/09/27 01:28:02;;;;;;;12.15;1.27;;;11.00;99.90;;;;;;6245808;22;20403;-78
2022/09/27 01:30:58;;;;;;;16.15;1.40;;;11.10;99.90;;;;;;6246944;22;20024;-76
2022/09/27 01:33:41;;;;;;;22.17;2.45;;;11.10;99.90;;;;;;6218221;23;20056;-83
2022/09/27 01:36:31;;;;;;;34.25;7.47;;;11.10;99.90;;;;;;6246226;22;20031;-77
2022/09/27 01:39:16;;;;;;;19.15;2.78;;;10.90;99.90;;;;;;6243703;23;20020;-73
2022/09/27 01:41:52;;;;;;;9.13;1.55;;;10.70;99.90;;;;;;6243665;23;20059;-75
2022/09/27 01:44:33;;;;;;;10.35;1.73;;;10.60;99.90;;;;;;6245387;23;20024;-74
2022/09/27 01:47:06;;;;;;;17.48;1.48;;;10.60;99.90;;;;;;6245193;23;20036;-74
2022/09/27 01:49:44;;;;;;;14.45;2.55;;;10.50;99.90;;;;;;6243239;23;20344;-73
2022/09/27 01:52:14;;;;;;;7.65;0.95;;;10.60;99.90;;;;;;6245171;22;20024;-73
2022/09/27 01:54:46;;;;;;;5.68;0.88;;;10.60;99.90;;;;;;6245247;22;20408;-72
2022/09/27 01:57:19;;;;;;;6.95;0.60;;;10.60;99.90;;;;;;6245416;22;20042;-74
2022/09/27 02:00:15;;;;;;;6.25;1.10;;;10.60;99.90;;;;;;6245229;22;20073;-76
2022/09/27 02:02:59;;;;;;;6.38;0.90;;;10.60;99.90;;;;;;6226550;23;20024;-76
2022/09/27 02:05:36;;;;;;;4.90;0.90;;;10.60;99.90;;;;;;6245039;22;20030;-73
2022/09/27 02:08:12;;;;;;;8.68;1.35;;;10.70;99.90;;;;;;6245197;22;20016;-75
2022/09/27 02:10:42;;;;;;;12.00;1.45;;;10.70;99.90;;;;;;6245013;22;20020;-73
2022/09/27 02:13:43;;;;;;;8.90;1.20;;;10.80;99.90;;;;;;6244761;22;20095;-76
2022/09/27 02:16:09;;;;;;;8.18;1.02;;;10.80;99.90;;;;;;6181694;23;20029;-75
2022/09/27 02:19:02;;;;;;;9.60;1.30;;;10.80;99.90;;;;;;6233735;22;20115;-82
2022/09/27 02:21:41;;;;;;;9.00;1.10;;;10.80;99.90;;;;;;6246477;22;20105;-78
2022/09/27 02:24:13;;;;;;;6.55;0.77;;;10.80;99.90;;;;;;6245774;23;20031;-78
2022/09/27 02:26:50;;;;;;;6.47;0.60;;;10.80;99.90;;;;;;6246626;22;20024;-82
2022/09/27 02:29:22;;;;;;;9.50;1.90;;;10.80;99.90;;;;;;6243941;23;20020;-78
2022/09/27 02:31:49;;;;;;;16.45;2.25;;;10.70;99.90;;;;;;6219147;22;20028;-76
2022/09/27 02:34:29;;;;;;;10.60;1.27;;;10.50;99.90;;;;;;6244131;23;20039;-81
2022/09/27 02:36:55;;;;;;;9.77;1.10;;;10.30;99.90;;;;;;6243889;23;20024;-74
2022/09/27 02:39:22;;;;;;;15.52;1.67;;;10.30;99.90;;;;;;6243135;23;20020;-76
2022/09/27 02:41:48;;;;;;;12.63;1.90;;;10.30;99.90;;;;;;6245115;23;20024;-76
2022/09/27 02:44:16;;;;;;;5.93;1.25;;;10.30;99.90;;;;;;6218256;23;20027;-76
2022/09/27 02:47:01;;;;;;;12.32;1.83;;;10.30;99.90;;;;;;6243895;23;20020;-76
2022/09/27 02:50:05;;;;;;;7.72;0.90;;;10.30;99.90;;;;;;6245417;22;20020;-76
2022/09/27 02:53:07;;;;;;;8.50;0.80;;;10.30;99.90;;;;;;6181153;23;20025;-76
2022/09/27 02:55:50;;;;;;;7.07;0.90;;;10.40;99.90;;;;;;6242753;23;20020;-73
2022/09/27 02:58:50;;;;;;;11.40;2.28;;;10.40;99.90;;;;;;6242834;23;20123;-80
2022/09/27 03:01:37;;;;;;;14.35;1.65;;;10.40;99.90;;;;;;6247968;22;20353;-75
2022/09/27 03:04:22;;;;;;;5.15;0.80;;;10.50;99.90;;;;;;6243401;23;20460;-75
2022/09/27 03:06:50;;;;;;;6.15;0.70;;;10.50;99.90;;;;;;6242744;23;20024;-78
2022/09/27 03:09:20;;;;;;;7.00;1.42;;;10.50;99.90;;;;;;6242231;23;20024;-74
2022/09/27 03:11:46;;;;;;;7.25;1.10;;;10.50;99.90;;;;;;6242464;23;20059;-75
2022/09/27 03:14:12;;;;;;;15.65;1.60;;;10.50;99.90;;;;;;6245378;22;20027;-82
2022/09/27 03:16:38;;;;;;;5.95;0.93;;;10.50;99.90;;;;;;6217789;23;20027;-76
2022/09/27 03:19:04;;;;;;;5.32;0.93;;;10.50;99.90;;;;;;6243221;23;20086;-77
2022/09/27 03:21:30;;;;;;;4.57;0.95;;;10.50;99.90;;;;;;6244810;23;20447;-79
2022/09/27 03:23:56;;;;;;;6.47;0.80;;;10.40;99.90;;;;;;6192511;23;20090;-74
2022/09/27 03:26:22;;;;;;;19.98;3.30;;;10.40;99.90;;;;;;6244377;23;20020;-75
2022/09/27 03:28:48;;;;;;;9.57;1.17;;;10.40;99.90;;;;;;6242843;23;20023;-80
2022/09/27 03:31:14;;;;;;;8.43;1.25;;;10.20;99.90;;;;;;6244468;23;20023;-76
2022/09/27 03:33:40;;;;;;;15.70;1.80;;;10.10;99.90;;;;;;6242069;23;20054;-77
2022/09/27 03:36:06;;;;;;;29.15;2.85;;;10.10;99.90;;;;;;6242908;23;20130;-76
2022/09/27 03:38:32;;;;;;;14.27;3.08;;;10.10;99.90;;;;;;6244514;22;20067;-77
2022/09/27 03:40:58;;;;;;;10.60;1.80;;;10.20;99.90;;;;;;6243980;22;20330;-76
2022/09/27 03:43:24;;;;;;;10.02;1.77;;;10.20;99.90;;;;;;6217790;23;20020;-75
2022/09/27 03:45:50;;;;;;;8.25;1.02;;;10.30;99.90;;;;;;6243205;23;20078;-81
2022/09/27 03:48:16;;;;;;;9.65;1.50;;;10.30;99.90;;;;;;6242108;23;20436;-79
2022/09/27 03:50:42;;;;;;;7.05;1.20;;;10.30;99.90;;;;;;6242102;23;20085;-77
2022/09/27 03:53:08;;;;;;;10.25;1.42;;;10.30;99.90;;;;;;6244499;22;20463;-77
2022/09/27 03:55:34;;;;;;;6.68;1.10;;;10.40;99.90;;;;;;6242065;23;20052;-77
2022/09/27 03:58:01;;;;;;;15.48;1.92;;;10.40;99.90;;;;;;6244079;22;20077;-83
2022/09/27 04:00:27;;;;;;;11.88;1.80;;;10.50;99.90;;;;;;6243402;23;20508;-75
2022/09/27 04:02:53;;;;;;;9.32;1.20;;;10.50;99.90;;;;;;6243808;22;20460;-81
2022/09/27 04:05:18;;;;;;;12.52;1.83;;;10.50;99.90;;;;;;6216883;23;20035;-77
2022/09/27 04:07:48;;;;;;;13.18;1.90;;;10.50;99.90;;;;;;6244311;23;20024;-76
2022/09/27 04:10:15;;;;;;;13.52;0.98;;;10.50;99.90;;;;;;6242396;23;20078;-77
2022/09/27 04:12:41;;;;;;;11.40;1.23;;;10.40;99.90;;;;;;6242711;23;20077;-84
2022/09/27 04:15:07;;;;;;;9.40;1.15;;;10.40;99.90;;;;;;6243515;23;20031;-78
2022/09/27 04:17:34;;;;;;;19.27;2.50;;;10.40;99.90;;;;;;6267787;22;20023;-76
2022/09/27 04:20:02;;;;;;;13.27;3.05;;;10.40;99.90;;;;;;6243943;22;20059;-79
2022/09/27 04:22:28;;;;;;;8.63;2.10;;;10.30;99.90;;;;;;6243660;22;20090;-79
2022/09/27 04:24:54;;;;;;;9.68;1.20;;;10.30;99.90;;;;;;6242238;23;20016;-80
2022/09/27 04:27:21;;;;;;;11.45;1.30;;;10.30;99.90;;;;;;6243384;22;20023;-77
2022/09/27 04:29:47;;;;;;;11.38;1.88;;;10.30;99.90;;;;;;6242245;23;20047;-80
2022/09/27 04:32:14;;;;;;;9.90;1.33;;;10.30;99.90;;;;;;6242275;23;20070;-76
2022/09/27 04:37:25;;;;;;;9.65;1.60;;;10.20;99.90;;;;;;6244166;23;20020;-84
2022/09/27 04:39:51;;;;;;;7.40;1.10;;;10.20;99.90;;;;;;6243451;22;20024;-76
2022/09/27 04:42:18;;;;;;;10.35;1.35;;;10.20;99.90;;;;;;6243687;23;20030;-80
2022/09/27 04:44:44;;;;;;;9.65;1.33;;;10.20;99.90;;;;;;6244027;22;20020;-83
2022/09/27 04:47:10;;;;;;;6.68;1.10;;;10.20;99.90;;;;;;6243789;22;20376;-77
2022/09/27 04:49:37;;;;;;;7.07;1.23;;;10.20;99.90;;;;;;6243290;22;20472;-76
2022/09/27 04:52:04;;;;;;;12.35;1.65;;;10.20;99.90;;;;;;6242320;23;20059;-76
2022/09/27 04:54:31;;;;;;;8.20;1.08;;;10.10;99.90;;;;;;6243097;22;20467;-74
2022/09/27 04:56:57;;;;;;;4.93;0.85;;;10.10;99.90;;;;;;6241753;23;20352;-79
2022/09/27 04:59:23;;;;;;;4.68;1.30;;;10.10;99.90;;;;;;6242137;23;20103;-80
2022/09/27 05:01:49;;;;;;;15.32;1.67;;;10.10;99.90;;;;;;6243101;22;20567;-74
2022/09/27 05:04:15;;;;;;;8.18;1.10;;;10.10;99.90;;;;;;6216578;23;20090;-76
2022/09/27 05:06:41;;;;;;;6.90;1.30;;;10.10;99.90;;;;;;6216091;23;20016;-76
2022/09/27 05:09:07;;;;;;;9.45;1.08;;;10.10;99.90;;;;;;6243352;23;20034;-77
2022/09/27 05:11:36;;;;;;;6.40;0.68;;;10.20;99.90;;;;;;6243607;23;20024;-80
2022/09/27 05:14:03;;;;;;;6.45;0.88;;;10.20;99.90;;;;;;6241201;23;20024;-75
2022/09/27 05:16:29;;;;;;;6.15;0.90;;;10.20;99.90;;;;;;6243011;23;20030;-80
2022/09/27 05:18:56;;;;;;;8.25;1.63;;;10.30;99.90;;;;;;6241335;23;20028;-81
2022/09/27 05:21:22;;;;;;;9.50;0.85;;;10.20;99.90;;;;;;6243437;22;20100;-75
2022/09/27 05:23:48;;;;;;;27.65;1.92;;;10.20;99.90;;;;;;6243382;22;20083;-76
2022/09/27 05:26:14;;;;;;;4.43;0.75;;;10.20;99.90;;;;;;6241341;23;20020;-74
2022/09/27 05:28:42;;;;;;;8.25;1.10;;;10.20;99.90;;;;;;6241184;23;20028;-76
2022/09/27 05:31:10;;;;;;;6.25;1.00;;;10.20;99.90;;;;;;6241548;23;20024;-79
2022/09/27 05:33:36;;;;;;;5.53;0.95;;;10.20;99.90;;;;;;6243400;23;20135;-79
2022/09/27 05:36:01;;;;;;;6.15;0.82;;;10.20;99.90;;;;;;6240940;23;20060;-81
2022/09/27 05:38:28;;;;;;;5.57;0.73;;;10.20;99.90;;;;;;6242975;22;20090;-78
2022/09/27 05:40:54;;;;;;;9.98;1.10;;;10.20;99.90;;;;;;6241923;23;20024;-74
2022/09/27 05:43:20;;;;;;;10.30;0.90;;;10.20;99.90;;;;;;6243218;22;20087;-81
2022/09/27 05:45:46;;;;;;;10.45;1.42;;;10.20;99.90;;;;;;6241504;23;20020;-83
2022/09/27 05:48:13;;;;;;;12.25;1.23;;;10.20;99.90;;;;;;6242948;22;20055;-77
2022/09/27 05:50:39;;;;;;;7.90;1.00;;;10.30;99.90;;;;;;6243334;22;20503;-77
2022/09/27 05:53:06;;;;;;;16.60;2.03;;;10.40;99.90;;;;;;6244225;22;20020;-76
2022/09/27 05:55:32;;;;;;;14.45;1.83;;;10.40;99.90;;;;;;6243387;23;20020;-75
2022/09/27 05:58:06;;;;;;;10.48;1.30;;;10.50;99.90;;;;;;6241182;23;20028;-77
2022/09/27 06:00:33;;;;;;;;;;;10.50;99.90;;;;;;6242441;23;20024;-84
2022/09/27 06:03:02;;;;;;;10.07;1.20;;;10.50;99.90;;;;;;6244693;22;20048;-81
2022/09/27 06:05:30;;;;;;;7.90;1.02;;;10.50;99.90;;;;;;6244053;23;20024;-77
2022/09/27 06:08:04;;;;;;;5.18;1.00;;;10.50;99.90;;;;;;6245565;23;20348;-78
2022/09/27 06:10:31;;;;;;;5.05;0.60;;;10.50;99.90;;;;;;6245448;22;20351;-77
2022/09/27 06:13:05;;;;;;;6.80;0.85;;;10.40;99.90;;;;;;6245613;23;20017;-85
2022/09/27 06:15:32;;;;;;;;;;;10.30;99.90;;;;;;6247536;22;20349;-79
2022/09/27 06:18:06;;;;;;;4.95;1.20;;;10.20;99.90;;;;;;6245186;22;19924;-76
2022/09/27 06:20:33;;;;;;;10.33;0.97;;;10.20;99.90;;;;;;6246162;22;20020;-78
2022/09/27 06:23:04;;;;;;;9.63;1.67;;;10.20;99.90;;;;;;6243387;23;20243;-79
2022/09/27 06:25:30;;;;;;;10.02;1.20;;;10.20;99.90;;;;;;6243003;23;20338;-82
2022/09/27 06:27:56;;;;;;;6.35;0.75;;;10.20;99.90;;;;;;6243947;22;20079;-79
2022/09/27 06:30:21;;;;;;;7.40;0.70;;;10.20;99.90;;;;;;6217597;23;20026;-77
2022/09/27 06:32:47;;;;;;;11.00;1.25;;;10.30;99.90;;;;;;6248004;23;20063;-76
2022/09/27 06:35:13;;;;;;;6.40;0.50;;;10.30;99.90;;;;;;6244020;23;20460;-78
2022/09/27 06:37:39;;;;;;;3.28;0.80;;;10.30;99.90;;;;;;6241770;23;20020;-77
2022/09/27 06:40:07;;;;;;;5.25;0.60;;;10.20;99.90;;;;;;6243731;22;20334;-82
2022/09/27 06:42:33;;;;;;;7.57;1.30;;;10.30;99.90;;;;;;6242100;23;20024;-79
2022/09/27 06:44:59;;;;;;;9.13;1.42;;;10.40;99.90;;;;;;6243633;23;20039;-84
2022/09/27 06:47:26;;;;;;;6.05;0.80;;;10.40;99.90;;;;;;6241812;23;20099;-77
2022/09/27 06:49:51;;;;;;;3.53;0.60;;;10.40;99.90;;;;;;6245786;22;20020;-76
2022/09/27 06:52:17;;;;;;;7.32;0.90;;;10.50;99.90;;;;;;6244224;23;20066;-77
2022/09/27 06:54:43;;;;;;;10.60;1.15;;;10.50;99.90;;;;;;6243842;23;20035;-75
2022/09/27 06:57:09;;;;;;;7.90;1.15;;;10.60;99.90;;;;;;6243999;23;20490;-77
2022/09/27 07:02:19;;;;;;;5.05;1.08;;;10.70;99.90;;;;;;6246324;23;20032;-79
2022/09/27 07:04:45;;;;;;;7.60;1.23;;;10.80;99.90;;;;;;6247542;23;20103;-76
2022/09/27 07:07:12;;;;;;;9.52;1.20;;;10.80;99.90;;;;;;6244257;22;20031;-74
2022/09/27 07:09:39;;;;;;;9.93;1.17;;;10.90;99.90;;;;;;6252012;22;20024;-89
2022/09/27 07:12:05;;;;;;;7.70;1.40;;;10.90;99.90;;;;;;6243870;22;20089;-78
2022/09/27 07:14:33;;;;;;;6.70;1.20;;;11.00;99.90;;;;;;6239734;23;20047;-74
2022/09/27 07:16:58;;;;;;;8.05;1.02;;;11.00;99.90;;;;;;6243451;22;20035;-74
2022/09/27 07:19:25;;;;;;;9.10;0.80;;;10.90;99.90;;;;;;6243257;22;20024;-77
2022/09/27 07:21:51;;;;;;;3.72;0.50;;;10.90;99.90;;;;;;6241865;23;20027;-76
2022/09/27 07:24:17;;;;;;;7.55;1.02;;;10.90;99.90;;;;;;6241436;23;20113;-75
2022/09/27 07:26:43;;;;;;;9.68;1.15;;;10.90;99.90;;;;;;6241234;23;20024;-76
2022/09/27 07:29:09;;;;;;;9.27;0.90;;;10.90;99.90;;;;;;6241325;23;20038;-78
2022/09/27 07:31:36;;;;;;;8.10;1.00;;;10.90;99.90;;;;;;6241183;23;20034;-74
2022/09/27 07:34:02;;;;;;;4.35;0.70;;;11.00;99.90;;;;;;6243410;23;20625;-78
2022/09/27 07:36:29;;;;;;;5.75;0.70;;;11.00;99.90;;;;;;6244549;23;20051;-77
2022/09/27 07:38:58;;;;;;;4.03;0.77;;;11.00;99.90;;;;;;6247216;23;20024;-76
2022/09/27 07:41:24;;;;;;;5.45;1.08;;;11.10;99.90;;;;;;6242171;23;20021;-75
2022/09/27 07:43:50;;;;;;;4.95;0.73;;;11.20;99.90;;;;;;6244069;23;20031;-76
2022/09/27 07:46:15;;;;;;;7.45;0.73;;;11.20;99.90;;;;;;6242792;23;20115;-76
2022/09/27 07:48:41;;;;;;;10.82;0.98;;;11.30;99.90;;;;;;6244096;23;20119;-77
2022/09/27 07:51:09;;;;;;;8.85;0.85;;;11.40;99.90;;;;;;6246618;23;20028;-76
2022/09/27 07:53:35;;;;;;;7.20;1.27;;;11.40;99.90;;;;;;6243654;23;20028;-77
2022/09/27 07:56:01;;;;;;;7.00;0.82;;;11.50;99.90;;;;;;6242927;23;20388;-83
2022/09/27 07:58:29;;;;;;;5.13;0.75;;;11.60;99.90;;;;;;6218475;23;20099;-88
2022/09/27 08:00:57;;;;;;;6.43;1.13;;;11.70;99.90;;;;;;6245315;23;20337;-79
2022/09/27 08:03:23;;;;;;;13.05;1.27;;;11.80;99.90;;;;;;6241802;23;20034;-88
2022/09/27 08:05:49;;;;;;;13.20;1.70;;;11.90;99.90;;;;;;6241667;23;20114;-83
2022/09/27 08:08:16;;;;;;;18.83;2.47;;;11.90;99.90;;;;;;6266544;22;20020;-76
2022/09/27 08:10:45;;;;;;;8.35;1.10;;;11.70;99.90;;;;;;6240889;23;20024;-82
2022/09/27 08:13:12;;;;;;;8.88;1.45;;;11.70;99.90;;;;;;6242482;22;20070;-77
2022/09/27 08:15:37;;;;;;;8.13;1.17;;;11.70;99.90;;;;;;6243120;22;20483;-76
2022/09/27 08:18:04;;;;;;;7.80;0.98;;;11.60;99.90;;;;;;6243268;22;20020;-81
2022/09/27 08:20:30;;;;;;;6.68;0.98;;;11.70;99.90;;;;;;6241513;23;20540;-80
2022/09/27 08:22:56;;;;;;;10.88;1.92;;;11.70;99.90;;;;;;6242799;23;20059;-79
2022/09/27 08:25:23;;;;;;;5.25;0.70;;;11.70;99.90;;;;;;6240338;23;20078;-81
2022/09/27 08:27:56;;;;;;;11.63;1.15;;;11.70;99.90;;;;;;6215652;23;20026;-79
2022/09/27 08:30:23;;;;;;;6.45;0.70;;;11.60;99.90;;;;;;6240742;23;20114;-79
2022/09/27 08:33:01;;;;;;;6.72;1.33;;;11.50;99.90;;;;;;6240938;23;20159;-78
2022/09/27 08:35:27;;;;;;;6.63;0.68;;;11.50;99.90;;;;;;6243125;22;20058;-81
2022/09/27 08:37:58;;;;;;;10.27;0.93;;;11.60;99.90;;;;;;6240552;23;20020;-77
2022/09/27 08:40:47;;;;;;;6.90;1.10;;;11.60;99.90;;;;;;6243407;22;20020;-79
2022/09/27 08:43:32;;;;;;;5.53;0.80;;;11.60;99.90;;;;;;6216127;23;20107;-81
2022/09/27 08:46:18;;;;;;;11.35;1.20;;;11.70;99.90;;;;;;6243551;23;20348;-77
2022/09/27 08:48:50;;;;;;;6.22;1.13;;;11.70;99.90;;;;;;6241464;23;20024;-77
2022/09/27 08:51:20;;;;;;;4.35;0.55;;;11.80;99.90;;;;;;6241540;23;20024;-80
2022/09/27 08:54:04;;;;;;;9.15;1.98;;;11.80;99.90;;;;;;6243379;22;20020;-80
2022/09/27 08:56:31;;;;;;;5.03;0.70;;;11.80;99.90;;;;;;6243970;22;20094;-79
2022/09/27 08:59:20;;;;;;;7.20;1.00;;;11.80;99.90;;;;;;6240761;23;20394;-77
2022/09/27 09:01:48;;;;;;;10.48;2.33;;;11.70;99.90;;;;;;6242768;22;20392;-78
2022/09/27 09:04:28;;;;;;;9.10;1.00;;;11.70;99.90;;;;;;6239679;23;20028;-78
2022/09/27 09:07:19;;;;;;;9.38;1.00;;;11.50;99.90;;;;;;6242762;22;20103;-78
2022/09/27 09:10:02;;;;;;;5.95;0.80;;;11.50;99.90;;;;;;6240961;23;20099;-81
2022/09/27 09:12:46;;;;;;;5.45;0.65;;;11.40;99.90;;;;;;6240605;23;20028;-78
2022/09/27 09:15:19;;;;;;;8.98;1.63;;;11.40;99.90;;;;;;6240432;23;20070;-77
2022/09/27 09:18:08;;;;;;;7.25;0.80;;;11.40;99.90;;;;;;6240318;23;20055;-78
2022/09/27 09:20:46;;;;;;;4.60;0.50;;;11.40;99.90;;;;;;6240428;23;20059;-78
2022/09/27 09:23:31;;;;;;;7.93;0.73;;;11.30;99.90;;;;;;6240650;23;20090;-78
2022/09/27 09:26:34;;;;;;;4.68;0.70;;;11.40;99.90;;;;;;6243297;22;20027;-79
2022/09/27 09:29:22;;;;;;;4.43;0.70;;;11.40;99.90;;;;;;6241834;23;20131;-78
2022/09/27 09:32:19;;;;;;;5.85;0.85;;;11.40;99.90;;;;;;6240274;23;20024;-79
2022/09/27 09:34:56;;;;;;;4.75;1.17;;;11.40;99.90;;;;;;6242345;23;20453;-79
2022/09/27 09:37:37;;;;;;;2.67;0.25;;;11.40;99.90;;;;;;6243545;22;20099;-80
2022/09/27 09:40:25;;;;;;;5.25;0.50;;;11.40;99.90;;;;;;6244408;22;20035;-80
2022/09/27 09:43:06;;;;;;;3.95;0.40;;;11.40;99.90;;;;;;6243036;23;20109;-79
2022/09/27 09:45:38;;;;;;;5.03;0.60;;;11.50;99.90;;;;;;6242589;23;20031;-79
2022/09/27 09:48:15;;;;;;;4.05;0.68;;;11.50;99.90;;;;;;6242323;23;20027;-80
2022/09/27 09:50:44;;;;;;;6.82;1.02;;;11.50;99.90;;;;;;6242549;23;20329;-79
2022/09/27 09:53:38;;;;;;;12.02;1.08;;;11.60;99.90;;;;;;6244371;22;20159;-79
2022/09/27 09:56:18;;;;;;;5.60;0.60;;;11.70;99.90;;;;;;6234960;23;20020;-80
2022/09/27 09:58:55;;;;;;;6.60;0.73;;;11.70;99.90;;;;;;6242911;23;20027;-80
2022/09/27 10:01:26;;;;;;;3.47;0.60;;;11.90;99.90;;;;;;6218424;23;20020;-80
2022/09/27 10:03:54;;;;;;;3.60;0.47;;;12.00;99.90;;;;;;6242489;23;20107;-79
2022/09/27 10:06:21;;;;;;;4.15;0.70;;;12.00;99.90;;;;;;6244361;22;20035;-80
2022/09/27 10:08:48;;;;;;;4.90;0.47;;;12.20;99.90;;;;;;6217596;23;20016;-81
2022/09/27 10:11:25;;;;;;;4.78;0.60;;;12.30;99.90;;;;;;6242173;23;20130;-81
2022/09/27 10:13:54;;;;;;;4.80;0.47;;;12.40;99.90;;;;;;6217046;23;20071;-80
2022/09/27 10:16:21;;;;;;;6.38;1.17;;;12.40;99.90;;;;;;6242401;23;20657;-81
2022/09/27 10:18:50;;;;;;;4.90;0.73;;;12.50;99.90;;;;;;6243737;23;20024;-79
2022/09/27 10:21:24;;;;;;;3.78;0.60;;;12.50;99.90;;;;;;6216819;23;20031;-79
2022/09/27 10:24:10;;;;;;;4.38;0.70;;;12.60;99.90;;;;;;6244573;22;20047;-80
2022/09/27 10:26:38;;;;;;;3.78;0.50;;;12.60;99.90;;;;;;6244124;22;20345;-80
2022/09/27 10:29:19;;;;;;;3.33;1.05;;;12.60;99.90;;;;;;6243921;22;20038;-79
2022/09/27 10:31:47;;;;;;;1.17;0.20;;;12.60;99.90;;;;;;6217061;23;20062;-81
2022/09/27 10:34:39;;;;;;;2.65;0.32;;;12.60;99.90;;;;;;6218538;23;20312;-80
2022/09/27 10:37:22;;;;;;;3.65;0.40;;;12.60;99.90;;;;;;6242496;23;20524;-80
2022/09/27 10:39:52;;;;;;;6.03;0.50;;;12.70;99.90;;;;;;6242829;23;20344;-82
2022/09/27 10:42:37;;;;;;;5.53;0.90;;;12.80;99.90;;;;;;6244390;22;20027;-83
2022/09/27 10:45:29;;;;;;;4.38;0.70;;;13.00;99.90;;;;;;6243768;22;20077;-81
2022/09/27 10:47:57;;;;;;;4.35;0.50;;;13.50;99.90;;;;;;6242360;22;20364;-80
2022/09/27 10:50:25;;;;;;;5.85;1.73;;;14.20;99.90;;;;;;6242296;23;20020;-81
2022/09/27 10:53:11;;;;;;;6.30;0.77;;;14.30;99.90;;;;;;6247926;22;20082;-80
2022/09/27 10:55:39;;;;;;;7.40;0.70;;;14.50;99.90;;;;;;6244402;22;20020;-82
2022/09/27 10:58:06;;;;;;;8.40;1.30;;;14.10;99.90;;;;;;6242836;23;20043;-82
2022/09/27 11:00:34;;;;;;;17.08;2.33;;;13.40;99.90;;;;;;6242280;23;20017;-77
2022/09/27 11:03:14;;;;;;;8.77;0.90;;;12.80;99.90;;;;;;6243603;22;20101;-81
2022/09/27 11:05:42;;;;;;;9.70;1.40;;;12.20;99.90;;;;;;6244259;22;20345;-82
2022/09/27 11:08:31;;;;;;;6.43;1.15;;;11.90;99.90;;;;;;6243746;23;20024;-82
2022/09/27 11:11:12;;;;;;;8.27;0.95;;;11.60;99.90;;;;;;6243004;23;20452;-81
2022/09/27 11:13:38;;;;;;;8.48;1.17;;;11.40;99.90;;;;;;6243546;23;20024;-78
2022/09/27 11:16:35;;;;;;;6.75;0.50;;;11.30;99.90;;;;;;6243218;22;20026;-79
2022/09/27 11:19:10;;;;;;;6.97;0.70;;;11.20;99.90;;;;;;6191994;22;20604;-77
2022/09/27 11:21:54;;;;;;;5.88;0.60;;;11.30;99.90;;;;;;6272849;22;20016;-77
2022/09/27 11:24:42;;;;;;;9.68;1.33;;;11.30;99.90;;;;;;6273807;22;20102;-79
2022/09/27 11:27:33;;;;;;;3.83;0.52;;;11.40;99.90;;;;;;6272901;22;20348;-80
2022/09/27 11:30:02;;;;;;;2.20;0.32;;;11.50;99.90;;;;;;6273939;22;20024;-80
2022/09/27 11:32:51;;;;;;;3.85;0.45;;;11.60;99.90;;;;;;6275226;22;20098;-82
2022/09/27 11:35:55;;;;;;;4.10;0.50;;;11.70;99.90;;;;;;6273924;22;20034;-84
2022/09/27 11:38:46;;;;;;;1.70;0.20;;;11.80;99.90;;;;;;6272975;22;20460;-83
2022/09/27 11:41:39;;;;;;;3.78;0.32;;;12.00;99.90;;;;;;6274656;22;20030;-85
2022/09/27 11:44:30;;;;;;;13.02;1.00;;;12.20;99.90;;;;;;6273815;22;20023;-77
2022/09/27 11:47:28;;;;;;;8.13;0.70;;;12.60;99.90;;;;;;6272165;22;20024;-80
2022/09/27 11:49:57;;;;;;;4.50;0.82;;;13.00;99.90;;;;;;6263513;22;20023;-81
2022/09/27 11:52:48;;;;;;;21.65;2.15;;;13.10;99.90;;;;;;6272228;22;20054;-80
2022/09/27 11:55:32;;;;;;;5.15;0.70;;;13.50;99.90;;;;;;6275304;22;20345;-80
2022/09/27 11:58:05;;;;;;;1.40;0.32;;;14.00;99.90;;;;;;6273705;22;20034;-80
2022/09/27 12:00:47;;;;;;;2.17;0.35;;;14.70;99.90;;;;;;6272258;22;20443;-82
2022/09/27 12:03:55;;;;;;;2.17;0.50;;;15.70;99.90;;;;;;6273794;22;20462;-79
2022/09/27 12:06:41;;;;;;;10.18;1.08;;;16.90;99.90;;;;;;6257725;22;20020;-79
2022/09/27 12:09:13;;;;;;;5.95;0.65;;;17.30;99.90;;;;;;6273822;22;20068;-81
2022/09/27 12:11:49;;;;;;;4.03;0.60;;;18.00;99.90;;;;;;6272772;22;20028;-77
2022/09/27 12:14:34;;;;;;;9.35;1.75;;;17.90;99.90;;;;;;6274496;22;20080;-83
2022/09/27 12:17:04;;;;;;;8.73;1.30;;;17.40;99.90;;;;;;6275023;22;20035;-79
2022/09/27 12:19:35;;;;;;;4.72;0.63;;;16.90;99.90;;;;;;6259895;22;20028;-81
2022/09/27 12:22:05;;;;;;;6.20;0.70;;;16.60;99.90;;;;;;6241343;23;20032;-83
2022/09/27 12:24:32;;;;;;;4.10;0.50;;;16.60;99.90;;;;;;6241951;23;20100;-84
2022/09/27 12:27:37;;;;;;;2.63;0.40;;;17.00;99.90;;;;;;6245039;22;20024;-85
2022/09/27 12:30:05;;;;;;;5.85;0.95;;;16.60;99.90;;;;;;6211308;23;20028;-83
2022/09/27 12:32:43;;;;;;;7.10;0.80;;;16.20;99.90;;;;;;6237682;23;20050;-82
2022/09/27 12:35:24;;;;;;;4.60;0.40;;;15.90;99.90;;;;;;6243610;22;20064;-79
2022/09/27 12:38:16;;;;;;;6.15;0.40;;;15.30;99.90;;;;;;6241266;23;20106;-81
2022/09/27 12:40:46;;;;;;;3.00;0.60;;;14.90;99.90;;;;;;6243044;22;20024;-80
2022/09/27 12:43:26;;;;;;;9.63;0.93;;;14.30;99.90;;;;;;6242953;22;20027;-80
2022/09/27 12:45:59;;;;;;;4.70;0.90;;;13.90;99.90;;;;;;6245544;22;20164;-82
2022/09/27 12:48:35;;;;;;;11.35;1.38;;;13.70;99.90;;;;;;6241599;23;20016;-80
2022/09/27 12:51:14;;;;;;;4.13;0.55;;;13.50;99.90;;;;;;6241261;23;20031;-82
2022/09/27 12:53:46;;;;;;;2.17;0.35;;;13.40;99.90;;;;;;6242417;22;20016;-79
2022/09/27 12:56:22;;;;;;;5.43;0.70;;;13.20;99.90;;;;;;6242092;23;20024;-78
2022/09/27 12:58:59;;;;;;;5.15;0.57;;;13.20;99.90;;;;;;6243390;22;20025;-83
2022/09/27 13:01:44;;;;;;;5.03;1.10;;;13.20;99.90;;;;;;6243328;23;20112;-83
2022/09/27 13:04:24;;;;;;;4.55;0.90;;;12.90;99.90;;;;;;6242016;23;20024;-85
2022/09/27 13:07:06;;;;;;;5.35;0.68;;;12.80;99.90;;;;;;6240683;23;20028;-77
2022/09/27 13:09:47;;;;;;;7.78;0.82;;;12.80;99.90;;;;;;6241662;23;20512;-74
2022/09/27 13:12:20;;;;;;;5.45;0.50;;;13.00;99.90;;;;;;6242332;22;20020;-76
2022/09/27 13:15:12;;;;;;;5.15;0.40;;;13.30;99.90;;;;;;6242291;22;20024;-80
2022/09/27 13:17:43;;;;;;;5.03;0.30;;;13.80;99.90;;;;;;6241171;23;20024;-79
2022/09/27 13:20:29;;;;;;;6.18;0.50;;;14.60;99.90;;;;;;6245909;22;20059;-78